メインページ
METAR-TAF:

METAR-TAF

空港 :

ポワントノワール, コンゴ

ポワントノワール空港

緯度: 04-49S, 経度: 011-54E, 海抜: 17m

現時点の気象観測

当レポートは45分前の01:00(UTC)に作成
西/北西の風 7kt
気温 24°C
湿度 94%
気圧 1011 hPa
視程: 6000m
高度800ftの雲は散在している
高度2000ftの千切れ雲あり
高度3000ftの雲はほとんどない, 積乱雲.
激しい雷雨

METAR: FCPP 180100Z 30007KT 6000 TS SCT008 BKN020 FEW030CB 24/23 Q1011 NOSIG

時間: 02:45 (01:45 UTC)

予報

当レポートは2時間45分前の23:00(UTC)に作成
予報は18日の 00時(UTC)から 18日の 24時(UTC)まで有効
の風 5kt
高度2000ftの千切れ雲あり
激しい雷雨
18日の 01時(UTC)から 18日の 04時(UTC)まで一時的に
視程: 4000m
激しい雷雨, 雨
18日の 05時(UTC)から 18日の 07時(UTC)まで徐々に
視程: 8000m
高度2300ftの雲は散在している

TAF: FCPP 172300Z 1800/1824 18005KT 60000 TS BKN020 FE030CB TEMPO 1801/1804 4000 TSRA BECMG 1805/1807 8000 NSW SCT023

4,000以上の空港の気象観測と天気予報(METAR報とTAF報)

利用可能な観測所は地図上に黄色い丸と赤い丸で示す。

丸の上にカーソルを重ねると観測所名を参照できる。

次にクリックすると気象観測と天気予報を参照できる。

マップの切り替え:黒色「×」印の緑ボタンをクリックして拡大、「-」印の緑ボタンをクリックして縮小、緑色の三角印をクリックして隣りの地図に切り替え


METAR-TAF: